createdAt,value
2023-03-25T00:01:49.317Z,2.47
2023-03-25T00:04:17.922Z,2.07
2023-03-25T00:06:45.893Z,2.00
2023-03-25T00:09:15.557Z,1.40
2023-03-25T00:11:43.635Z,1.40
2023-03-25T00:14:12.294Z,0.93
2023-03-25T00:16:40.292Z,1.50
2023-03-25T00:19:09.409Z,4.10
2023-03-25T00:21:42.105Z,2.63
2023-03-25T00:24:09.781Z,3.23
2023-03-25T00:26:42.603Z,2.50
2023-03-25T00:29:10.532Z,1.90
2023-03-25T00:31:38.220Z,1.13
2023-03-25T00:34:05.817Z,2.50
2023-03-25T00:36:33.583Z,0.67
2023-03-25T00:39:01.178Z,1.13
2023-03-25T00:41:28.904Z,1.67
2023-03-25T00:43:59.512Z,3.33
2023-03-25T00:46:29.504Z,1.70
2023-03-25T00:48:58.258Z,3.10
2023-03-25T00:51:26.778Z,4.60
2023-03-25T00:53:56.062Z,2.90
2023-03-25T00:56:24.303Z,4.43
2023-03-25T00:58:52.146Z,5.03
2023-03-25T01:01:23.726Z,1.93
2023-03-25T01:03:57.672Z,3.40
2023-03-25T01:06:29.688Z,0.97
2023-03-25T01:08:58.348Z,4.20
2023-03-25T01:11:28.070Z,3.37
2023-03-25T01:13:56.473Z,4.50
2023-03-25T01:16:25.485Z,2.13
2023-03-25T01:18:53.149Z,2.60
2023-03-25T01:21:20.903Z,1.23
2023-03-25T01:23:48.672Z,2.43
2023-03-25T01:26:16.303Z,4.13
2023-03-25T01:28:44.841Z,4.10
2023-03-25T01:31:14.193Z,4.80
2023-03-25T01:33:43.191Z,2.67
2023-03-25T01:36:14.355Z,5.53
2023-03-25T01:38:42.653Z,3.73
2023-03-25T01:41:11.239Z,4.07
2023-03-25T01:43:39.036Z,3.03
2023-03-25T01:46:07.055Z,4.80
2023-03-25T01:48:36.861Z,2.63
2023-03-25T01:51:07.785Z,3.10
2023-03-25T01:53:35.637Z,2.10
2023-03-25T01:56:05.460Z,3.97
2023-03-25T01:58:33.277Z,4.60
2023-03-25T02:01:01.579Z,3.17
2023-03-25T02:03:30.898Z,5.97
2023-03-25T02:06:02.627Z,1.93
2023-03-25T02:08:34.464Z,4.07
2023-03-25T02:11:02.266Z,2.73
2023-03-25T02:13:29.920Z,3.07
2023-03-25T02:16:14.414Z,3.43
2023-03-25T02:18:50.337Z,2.13
2023-03-25T02:21:46.458Z,2.23
2023-03-25T02:24:43.230Z,2.00
2023-03-25T02:27:27.227Z,1.93
2023-03-25T02:30:17.760Z,2.13
2023-03-25T02:33:07.185Z,3.77
2023-03-25T02:35:49.772Z,2.40
2023-03-25T02:38:28.524Z,3.30
2023-03-25T02:40:58.454Z,1.00
2023-03-25T02:43:32.446Z,1.80
2023-03-25T02:46:02.153Z,1.47
2023-03-25T02:48:33.871Z,1.43
2023-03-25T02:51:05.907Z,5.40
2023-03-25T02:53:37.350Z,2.03
2023-03-25T02:56:09.458Z,1.70
2023-03-25T02:58:38.315Z,2.30
2023-03-25T03:01:06.785Z,1.93
2023-03-25T03:03:34.445Z,1.37
2023-03-25T03:06:04.754Z,1.50
2023-03-25T03:08:44.996Z,2.03
2023-03-25T03:11:15.789Z,4.20
2023-03-25T03:14:01.296Z,2.70
2023-03-25T03:16:34.611Z,1.13
2023-03-25T03:19:09.619Z,0.70
2023-03-25T03:21:40.577Z,0.80
2023-03-25T03:24:16.462Z,1.63
2023-03-25T03:26:47.510Z,3.30
2023-03-25T03:29:18.239Z,4.60
2023-03-25T03:32:06.486Z,1.70
2023-03-25T03:34:43.146Z,1.47
2023-03-25T03:37:13.034Z,1.27
2023-03-25T03:39:43.726Z,2.10
2023-03-25T03:42:18.840Z,1.43
2023-03-25T03:44:50.699Z,2.50
2023-03-25T03:47:21.695Z,2.10
2023-03-25T03:49:52.980Z,2.20
2023-03-25T03:52:25.513Z,3.70
2023-03-25T03:54:57.530Z,2.53
2023-03-25T03:57:29.769Z,2.40
2023-03-25T04:00:04.282Z,3.30
2023-03-25T04:02:38.419Z,3.07
2023-03-25T04:05:08.946Z,4.47
2023-03-25T04:07:40.504Z,4.70
2023-03-25T04:10:15.665Z,1.90
2023-03-25T04:12:45.836Z,2.03
2023-03-25T04:15:14.130Z,3.43
2023-03-25T04:17:42.951Z,3.60
2023-03-25T04:20:12.005Z,1.73
2023-03-25T04:22:39.546Z,3.47
2023-03-25T04:25:07.562Z,4.80
2023-03-25T04:27:38.052Z,3.03
2023-03-25T04:30:07.087Z,1.30
2023-03-25T04:32:35.065Z,2.53
2023-03-25T04:35:03.343Z,4.50
2023-03-25T04:37:33.768Z,3.30
2023-03-25T04:40:01.415Z,3.43
2023-03-25T04:42:32.743Z,1.73
2023-03-25T04:45:02.462Z,4.47
2023-03-25T04:47:30.211Z,3.00
2023-03-25T04:49:59.552Z,1.57
2023-03-25T04:52:27.117Z,1.93
2023-03-25T04:54:55.540Z,4.53
2023-03-25T04:57:23.954Z,5.70
2023-03-25T04:59:51.599Z,6.50
2023-03-25T05:02:20.682Z,5.37
2023-03-25T05:04:48.307Z,1.97
2023-03-25T05:07:18.763Z,3.40
2023-03-25T05:09:46.373Z,4.13
2023-03-25T05:12:13.993Z,2.97
2023-03-25T05:14:41.865Z,3.37
2023-03-25T05:17:09.408Z,3.80
2023-03-25T05:19:38.346Z,1.30
2023-03-25T05:22:07.662Z,4.83
2023-03-25T05:24:35.241Z,5.23
2023-03-25T05:27:02.894Z,3.70
2023-03-25T05:29:33.897Z,2.87
2023-03-25T05:32:01.741Z,2.10
2023-03-25T05:34:31.057Z,6.33
2023-03-25T05:37:00.619Z,2.83
2023-03-25T05:39:28.400Z,1.83
2023-03-25T05:42:02.647Z,2.50
2023-03-25T05:44:30.236Z,1.77
2023-03-25T05:47:01.130Z,1.57
2023-03-25T05:49:28.759Z,1.30
2023-03-25T05:51:57.741Z,3.40
2023-03-25T05:54:28.425Z,2.47
2023-03-25T05:56:56.069Z,3.33
2023-03-25T05:59:23.719Z,3.87
2023-03-25T06:01:51.289Z,3.20
2023-03-25T06:04:18.985Z,2.87
2023-03-25T06:06:47.496Z,2.70
2023-03-25T06:09:15.408Z,7.13
2023-03-25T06:11:44.454Z,2.50
2023-03-25T06:14:12.003Z,3.73
2023-03-25T06:16:39.612Z,1.93
2023-03-25T06:19:09.543Z,3.47
2023-03-25T06:21:37.236Z,5.57
2023-03-25T06:24:08.010Z,3.43
2023-03-25T06:26:35.794Z,2.70
2023-03-25T06:29:04.717Z,3.83
2023-03-25T06:31:34.154Z,6.27
2023-03-25T06:34:02.381Z,5.20
2023-03-25T06:36:31.336Z,4.10
2023-03-25T06:38:59.359Z,2.53
2023-03-25T06:41:27.028Z,8.33
2023-03-25T06:43:54.730Z,7.07
2023-03-25T06:46:23.786Z,4.03
2023-03-25T06:48:51.482Z,5.70
2023-03-25T06:51:19.091Z,6.03
2023-03-25T06:53:46.875Z,7.53
2023-03-25T06:56:14.718Z,5.37
2023-03-25T06:58:42.443Z,6.77
2023-03-25T07:01:10.086Z,7.73
2023-03-25T07:03:39.442Z,8.00
2023-03-25T07:06:08.132Z,5.10
2023-03-25T07:08:35.858Z,5.60
2023-03-25T07:11:03.961Z,7.00
2023-03-25T07:13:32.090Z,6.87
2023-03-25T07:15:59.774Z,7.17
2023-03-25T07:18:27.738Z,6.07
2023-03-25T07:20:56.649Z,10.23
2023-03-25T07:23:24.419Z,9.10
2023-03-25T07:25:52.527Z,11.53
2023-03-25T07:28:20.687Z,9.27
2023-03-25T07:30:48.369Z,7.37
2023-03-25T07:33:16.422Z,7.63
2023-03-25T07:35:44.147Z,7.80
2023-03-25T07:38:13.207Z,7.13
2023-03-25T07:40:41.054Z,8.43
2023-03-25T07:43:08.837Z,8.33
2023-03-25T07:45:56.009Z,8.97
2023-03-25T07:48:23.704Z,6.70
2023-03-25T07:50:52.939Z,8.17
2023-03-25T07:53:22.035Z,10.03
2023-03-25T07:55:50.984Z,7.97
2023-03-25T07:58:19.141Z,10.50
2023-03-25T08:00:47.094Z,5.53
2023-03-25T08:03:16.107Z,8.77
2023-03-25T08:05:46.495Z,5.40
2023-03-25T08:08:14.311Z,7.90
2023-03-25T08:10:44.715Z,8.00
2023-03-25T08:13:12.447Z,4.43
2023-03-25T08:15:40.131Z,9.93
2023-03-25T08:18:08.269Z,6.63
2023-03-25T08:20:36.143Z,10.07
2023-03-25T08:23:03.993Z,13.03
2023-03-25T08:25:31.881Z,6.17
2023-03-25T08:28:00.883Z,9.83
2023-03-25T08:30:28.749Z,4.40
2023-03-25T08:32:56.385Z,7.80
2023-03-25T08:35:24.752Z,8.90
2023-03-25T08:37:52.805Z,9.13
2023-03-25T08:40:21.571Z,8.43
2023-03-25T08:42:49.426Z,7.33
2023-03-25T08:45:18.572Z,7.53
2023-03-25T08:47:46.825Z,7.90
2023-03-25T08:50:14.407Z,6.70
2023-03-25T08:52:42.625Z,7.73
2023-03-25T08:55:12.525Z,9.60
2023-03-25T08:57:42.525Z,8.40
2023-03-25T18:11:55.543Z,0.73
2023-03-25T18:14:24.417Z,0.60
2023-03-25T18:16:52.549Z,2.27
2023-03-25T18:19:22.037Z,2.07
2023-03-25T18:21:49.750Z,2.30
2023-03-25T18:24:17.415Z,1.93
2023-03-25T18:26:46.934Z,1.73
2023-03-25T18:29:19.755Z,1.47
2023-03-25T18:31:47.794Z,0.80
2023-03-25T18:34:16.178Z,0.90
2023-03-25T18:36:44.868Z,1.37
2023-03-25T18:39:14.475Z,1.60
2023-03-25T18:41:42.498Z,2.53
2023-03-25T18:44:11.168Z,1.00
2023-03-25T18:46:40.545Z,1.20
2023-03-25T18:49:13.049Z,2.37
2023-03-25T18:51:40.661Z,0.97
2023-03-25T18:54:08.447Z,3.17
2023-03-25T18:56:36.898Z,0.90
2023-03-25T18:59:05.340Z,1.33
2023-03-25T19:01:33.016Z,1.53
2023-03-25T19:04:03.235Z,1.10
2023-03-25T19:06:32.034Z,1.77
2023-03-25T19:09:00.292Z,1.40
2023-03-25T19:11:30.469Z,1.33
2023-03-25T19:13:58.307Z,2.03
2023-03-25T19:16:26.055Z,2.77
2023-03-25T19:18:53.700Z,2.10
2023-03-25T19:21:22.768Z,2.30
2023-03-25T19:23:52.003Z,2.37
2023-03-25T19:26:19.606Z,8.33
2023-03-25T19:28:47.648Z,9.63
2023-03-25T19:31:16.437Z,4.37
2023-03-25T19:33:44.365Z,2.90
2023-03-25T19:36:15.146Z,2.33
2023-03-25T19:38:44.530Z,5.20
2023-03-25T19:41:15.595Z,6.87
2023-03-25T19:43:43.463Z,2.00
2023-03-25T19:46:11.544Z,6.07
2023-03-25T19:48:39.287Z,4.17
2023-03-25T19:51:07.328Z,2.13
2023-03-25T19:53:35.448Z,1.37
2023-03-25T19:56:04.865Z,2.73
2023-03-25T19:58:32.618Z,4.37
2023-03-25T20:01:00.561Z,4.07
2023-03-25T20:03:31.268Z,3.43
2023-03-25T20:06:00.560Z,5.77
2023-03-25T20:08:29.424Z,1.70
2023-03-25T20:10:57.518Z,3.53
2023-03-25T20:13:26.976Z,4.00
2023-03-25T20:15:55.009Z,3.83
2023-03-25T20:18:23.175Z,2.47
2023-03-25T20:20:50.927Z,5.70
2023-03-25T20:23:18.516Z,5.60
2023-03-25T20:25:47.233Z,2.20
2023-03-25T20:28:15.056Z,4.40
2023-03-25T20:30:44.020Z,3.73
2023-03-25T20:33:11.731Z,3.13
2023-03-25T20:35:39.563Z,4.30
2023-03-25T20:38:08.363Z,2.67
2023-03-25T20:40:43.989Z,3.43
2023-03-25T20:43:13.912Z,2.73
2023-03-25T20:45:42.083Z,2.57
2023-03-25T20:48:11.112Z,2.20
2023-03-25T20:50:38.905Z,3.97
2023-03-25T20:53:06.750Z,4.47
2023-03-25T20:55:34.288Z,4.53
2023-03-25T20:58:01.920Z,3.87
2023-03-25T21:00:29.553Z,5.97
2023-03-25T21:02:57.887Z,1.40
2023-03-25T21:05:28.144Z,1.77
2023-03-25T21:07:55.857Z,4.60
2023-03-25T21:10:23.439Z,4.83
2023-03-25T21:12:51.229Z,2.63
2023-03-25T21:15:18.875Z,2.87
2023-03-25T21:17:47.043Z,3.50
2023-03-25T21:20:14.875Z,4.70
2023-03-25T21:22:44.798Z,3.07
2023-03-25T21:25:14.057Z,1.77
2023-03-25T21:27:42.386Z,2.67
2023-03-25T21:30:11.143Z,4.00
2023-03-25T21:32:38.974Z,5.83
2023-03-25T21:35:07.753Z,5.27
2023-03-25T21:37:38.400Z,3.80
2023-03-25T21:40:10.646Z,3.23
2023-03-25T21:42:39.171Z,3.57
2023-03-25T21:45:08.701Z,4.17
2023-03-25T21:47:36.816Z,2.53
2023-03-25T21:50:06.124Z,4.83
2023-03-25T21:52:33.828Z,5.83
2023-03-25T21:55:01.502Z,5.77
2023-03-25T21:57:31.393Z,2.03
2023-03-25T21:59:58.989Z,5.00
2023-03-25T22:02:28.772Z,5.73
2023-03-25T22:04:56.410Z,6.07
2023-03-25T22:07:24.043Z,4.73
2023-03-25T22:09:52.094Z,6.40
2023-03-25T22:12:19.884Z,3.37
2023-03-25T22:14:48.977Z,2.77
2023-03-25T22:17:16.739Z,4.97
2023-03-25T22:19:44.668Z,5.93
2023-03-25T22:22:18.837Z,2.67
2023-03-25T22:24:46.713Z,8.07
2023-03-25T22:27:14.473Z,7.53
2023-03-25T22:29:42.932Z,3.60
2023-03-25T22:32:11.879Z,6.10
2023-03-25T22:34:39.883Z,5.93
2023-03-25T22:37:07.645Z,4.33
2023-03-25T22:39:35.285Z,5.10
2023-03-25T22:42:03.083Z,9.53
2023-03-25T22:44:30.860Z,5.70
2023-03-25T22:46:58.395Z,4.70
2023-03-25T22:49:27.995Z,6.07
2023-03-25T22:51:55.789Z,5.80
2023-03-25T22:54:24.124Z,8.07
2023-03-25T22:56:51.769Z,8.47
2023-03-25T22:59:19.465Z,5.30
2023-03-25T23:01:47.360Z,4.60
2023-03-25T23:04:15.041Z,4.63
2023-03-25T23:06:51.159Z,5.00
2023-03-25T23:09:38.872Z,6.30
2023-03-25T23:12:06.824Z,9.53
2023-03-25T23:14:34.490Z,5.13
2023-03-25T23:17:02.326Z,8.30
2023-03-25T23:19:30.060Z,10.83
2023-03-25T23:21:59.605Z,8.73
2023-03-25T23:24:27.942Z,9.43
2023-03-25T23:26:55.757Z,5.30
2023-03-25T23:29:23.627Z,4.10
2023-03-25T23:31:51.364Z,6.63
2023-03-25T23:34:19.183Z,8.57
2023-03-25T23:36:47.826Z,7.73
2023-03-25T23:39:22.133Z,7.30
2023-03-25T23:41:50.278Z,4.93
2023-03-25T23:44:18.536Z,6.43
2023-03-25T23:46:46.756Z,6.20
2023-03-25T23:49:18.016Z,5.60
2023-03-25T23:51:48.812Z,8.13
2023-03-25T23:54:18.324Z,5.33
2023-03-25T23:56:46.173Z,7.10
2023-03-25T23:59:14.062Z,8.37
